sensor_id;sensor_type;location;lat;lon;timestamp;pressure;altitude;pressure_sealevel;temperature;humidity
72124;BME280;63818;37.134;-8.548;2023-12-28T00:04:22;102247.1;;;12.7;85.7
72124;BME280;63818;37.134;-8.548;2023-12-28T00:09:12;102234.7;;;12.7;85.9
72124;BME280;63818;37.134;-8.548;2023-12-28T00:14:00;102236.0;;;12.7;85.5
72124;BME280;63818;37.134;-8.548;2023-12-28T00:18:48;102231.2;;;12.7;84.9
72124;BME280;63818;37.134;-8.548;2023-12-28T00:23:38;102233.9;;;12.7;85.4
72124;BME280;63818;37.134;-8.548;2023-12-28T00:28:31;102227.5;;;12.6;85.3
72124;BME280;63818;37.134;-8.548;2023-12-28T00:33:23;102227.2;;;12.6;85.2
72124;BME280;63818;37.134;-8.548;2023-12-28T00:38:11;102234.0;;;12.6;85.0
72124;BME280;63818;37.134;-8.548;2023-12-28T00:43:01;102226.7;;;12.6;85.3
72124;BME280;63818;37.134;-8.548;2023-12-28T00:47:49;102227.5;;;12.6;84.9
72124;BME280;63818;37.134;-8.548;2023-12-28T00:52:40;102214.5;;;12.6;84.8
72124;BME280;63818;37.134;-8.548;2023-12-28T00:57:29;102196.0;;;12.6;85.1
72124;BME280;63818;37.134;-8.548;2023-12-28T01:02:17;102189.8;;;12.6;85.5
72124;BME280;63818;37.134;-8.548;2023-12-28T01:07:07;102195.5;;;12.6;85.7
72124;BME280;63818;37.134;-8.548;2023-12-28T01:12:02;102182.0;;;12.6;86.1
72124;BME280;63818;37.134;-8.548;2023-12-28T01:16:50;102194.6;;;12.6;86.6
72124;BME280;63818;37.134;-8.548;2023-12-28T01:21:38;102194.1;;;12.5;86.8
72124;BME280;63818;37.134;-8.548;2023-12-28T01:26:26;102184.7;;;12.5;87.4
72124;BME280;63818;37.134;-8.548;2023-12-28T01:31:14;102180.1;;;12.5;87.5
72124;BME280;63818;37.134;-8.548;2023-12-28T01:36:19;102182.3;;;12.5;87.2
72124;BME280;63818;37.134;-8.548;2023-12-28T01:41:09;102181.8;;;12.5;87.3
72124;BME280;63818;37.134;-8.548;2023-12-28T01:45:57;102193.6;;;12.5;87.2
72124;BME280;63818;37.134;-8.548;2023-12-28T01:50:56;102175.1;;;12.4;87.1
72124;BME280;63818;37.134;-8.548;2023-12-28T01:55:47;102177.0;;;12.4;86.7
72124;BME280;63818;37.134;-8.548;2023-12-28T02:00:34;102172.2;;;12.4;86.8
72124;BME280;63818;37.134;-8.548;2023-12-28T02:05:23;102171.9;;;12.4;87.1
72124;BME280;63818;37.134;-8.548;2023-12-28T02:10:13;102151.1;;;12.4;86.8
72124;BME280;63818;37.134;-8.548;2023-12-28T02:15:01;102147.4;;;12.3;86.5
72124;BME280;63818;37.134;-8.548;2023-12-28T02:19:58;102152.3;;;12.3;86.3
72124;BME280;63818;37.134;-8.548;2023-12-28T02:25:31;102155.8;;;12.3;86.4
72124;BME280;63818;37.134;-8.548;2023-12-28T02:30:21;102153.1;;;12.3;86.2
72124;BME280;63818;37.134;-8.548;2023-12-28T02:35:16;102150.9;;;12.3;86.1
72124;BME280;63818;37.134;-8.548;2023-12-28T02:40:10;102143.9;;;12.3;86.0
72124;BME280;63818;37.134;-8.548;2023-12-28T02:44:59;102124.9;;;12.2;85.9
72124;BME280;63818;37.134;-8.548;2023-12-28T02:49:49;102138.3;;;12.2;86.4
72124;BME280;63818;37.134;-8.548;2023-12-28T02:54:38;102139.1;;;12.2;86.3
72124;BME280;63818;37.134;-8.548;2023-12-28T03:04:18;102132.9;;;12.2;86.7
72124;BME280;63818;37.134;-8.548;2023-12-28T03:09:06;102152.9;;;12.2;86.5
72124;BME280;63818;37.134;-8.548;2023-12-28T03:13:57;102159.9;;;12.2;86.7
72124;BME280;63818;37.134;-8.548;2023-12-28T03:18:47;102156.4;;;12.2;86.5
72124;BME280;63818;37.134;-8.548;2023-12-28T03:23:37;102161.5;;;12.2;86.3
72124;BME280;63818;37.134;-8.548;2023-12-28T03:28:25;102148.3;;;12.2;85.8
72124;BME280;63818;37.134;-8.548;2023-12-28T03:33:13;102134.3;;;12.2;86.0
72124;BME280;63818;37.134;-8.548;2023-12-28T03:38:02;102135.6;;;12.2;85.7
72124;BME280;63818;37.134;-8.548;2023-12-28T03:42:49;102146.1;;;12.3;84.8
72124;BME280;63818;37.134;-8.548;2023-12-28T03:47:37;102138.3;;;12.2;84.7
72124;BME280;63818;37.134;-8.548;2023-12-28T03:52:27;102145.9;;;12.2;84.6
72124;BME280;63818;37.134;-8.548;2023-12-28T03:57:15;102165.5;;;12.2;84.5
72124;BME280;63818;37.134;-8.548;2023-12-28T04:02:03;102163.4;;;12.2;84.3
72124;BME280;63818;37.134;-8.548;2023-12-28T04:06:51;102159.9;;;12.2;84.3
72124;BME280;63818;37.134;-8.548;2023-12-28T04:11:50;102160.4;;;12.2;84.4
72124;BME280;63818;37.134;-8.548;2023-12-28T04:16:38;102162.8;;;12.2;84.3
72124;BME280;63818;37.134;-8.548;2023-12-28T04:21:28;102159.7;;;12.2;83.8
72124;BME280;63818;37.134;-8.548;2023-12-28T04:26:17;102155.8;;;12.2;84.0
72124;BME280;63818;37.134;-8.548;2023-12-28T04:31:17;102134.1;;;12.2;83.9
72124;BME280;63818;37.134;-8.548;2023-12-28T04:36:05;102110.1;;;12.2;83.2
72124;BME280;63818;37.134;-8.548;2023-12-28T04:40:53;102072.7;;;12.1;82.7
72124;BME280;63818;37.134;-8.548;2023-12-28T04:45:43;102086.6;;;12.2;82.7
72124;BME280;63818;37.134;-8.548;2023-12-28T04:50:31;102085.8;;;12.2;83.2
72124;BME280;63818;37.134;-8.548;2023-12-28T04:55:23;102089.2;;;12.3;83.8
72124;BME280;63818;37.134;-8.548;2023-12-28T05:00:11;102070.9;;;12.3;84.0
72124;BME280;63818;37.134;-8.548;2023-12-28T05:05:00;102083.6;;;12.3;83.9
72124;BME280;63818;37.134;-8.548;2023-12-28T05:09:48;102088.2;;;12.3;83.7
72124;BME280;63818;37.134;-8.548;2023-12-28T05:19:28;102119.5;;;12.2;84.1
72124;BME280;63818;37.134;-8.548;2023-12-28T05:24:18;102122.7;;;12.2;83.8
72124;BME280;63818;37.134;-8.548;2023-12-28T05:29:06;102110.8;;;12.2;83.8
72124;BME280;63818;37.134;-8.548;2023-12-28T05:33:55;102120.8;;;12.2;83.4
72124;BME280;63818;37.134;-8.548;2023-12-28T05:38:46;102118.1;;;12.2;83.4
72124;BME280;63818;37.134;-8.548;2023-12-28T05:43:36;102127.3;;;12.2;83.3
72124;BME280;63818;37.134;-8.548;2023-12-28T05:48:24;102129.7;;;12.2;83.6
72124;BME280;63818;37.134;-8.548;2023-12-28T05:53:12;102144.8;;;12.2;83.4
72124;BME280;63818;37.134;-8.548;2023-12-28T05:58:07;102174.2;;;12.2;83.1
72124;BME280;63818;37.134;-8.548;2023-12-28T06:02:55;102174.7;;;12.2;83.2
72124;BME280;63818;37.134;-8.548;2023-12-28T06:07:43;102173.4;;;12.2;82.9
72124;BME280;63818;37.134;-8.548;2023-12-28T06:12:31;102177.7;;;12.2;82.5
72124;BME280;63818;37.134;-8.548;2023-12-28T06:17:19;102173.6;;;12.3;82.4
72124;BME280;63818;37.134;-8.548;2023-12-28T06:22:09;102161.7;;;12.3;82.3
72124;BME280;63818;37.134;-8.548;2023-12-28T06:26:57;102148.5;;;12.3;82.5
72124;BME280;63818;37.134;-8.548;2023-12-28T06:31:45;102133.2;;;12.3;82.5
72124;BME280;63818;37.134;-8.548;2023-12-28T06:36:36;102137.0;;;12.3;83.0
72124;BME280;63818;37.134;-8.548;2023-12-28T06:41:24;102142.6;;;12.2;84.0
72124;BME280;63818;37.134;-8.548;2023-12-28T06:46:13;102151.2;;;12.3;85.0
72124;BME280;63818;37.134;-8.548;2023-12-28T06:51:05;102157.4;;;12.3;85.5
72124;BME280;63818;37.134;-8.548;2023-12-28T06:55:53;102164.2;;;12.2;85.6
72124;BME280;63818;37.134;-8.548;2023-12-28T07:00:41;102172.3;;;12.2;85.4
72124;BME280;63818;37.134;-8.548;2023-12-28T07:05:38;102165.3;;;12.2;85.0
72124;BME280;63818;37.134;-8.548;2023-12-28T07:10:26;102164.0;;;12.2;85.1
72124;BME280;63818;37.134;-8.548;2023-12-28T07:15:16;102167.8;;;12.2;85.1
72124;BME280;63818;37.134;-8.548;2023-12-28T07:20:05;102166.9;;;12.2;85.7
72124;BME280;63818;37.134;-8.548;2023-12-28T07:24:52;102169.6;;;12.2;85.2
72124;BME280;63818;37.134;-8.548;2023-12-28T07:29:43;102166.4;;;12.2;85.1
72124;BME280;63818;37.134;-8.548;2023-12-28T07:34:31;102172.9;;;12.2;85.1
72124;BME280;63818;37.134;-8.548;2023-12-28T07:39:19;102195.2;;;12.2;85.1
72124;BME280;63818;37.134;-8.548;2023-12-28T07:44:07;102220.3;;;12.2;85.1
72124;BME280;63818;37.134;-8.548;2023-12-28T07:48:55;102231.1;;;12.2;84.6
72124;BME280;63818;37.134;-8.548;2023-12-28T07:53:43;102242.9;;;12.2;84.9
72124;BME280;63818;37.134;-8.548;2023-12-28T07:58:31;102249.6;;;12.2;85.3
72124;BME280;63818;37.134;-8.548;2023-12-28T08:03:21;102239.7;;;12.2;85.0
72124;BME280;63818;37.134;-8.548;2023-12-28T08:08:12;102223.0;;;12.2;85.1
72124;BME280;63818;37.134;-8.548;2023-12-28T08:13:03;102226.8;;;12.2;85.6
72124;BME280;63818;37.134;-8.548;2023-12-28T08:17:58;102240.5;;;12.2;85.8
72124;BME280;63818;37.134;-8.548;2023-12-28T08:22:52;102242.9;;;12.2;85.6
72124;BME280;63818;37.134;-8.548;2023-12-28T08:27:40;102256.6;;;12.3;86.2
72124;BME280;63818;37.134;-8.548;2023-12-28T08:32:33;102256.6;;;12.3;86.2
72124;BME280;63818;37.134;-8.548;2023-12-28T08:37:21;102266.6;;;12.2;86.6
72124;BME280;63818;37.134;-8.548;2023-12-28T08:42:09;102273.0;;;12.3;86.7
72124;BME280;63818;37.134;-8.548;2023-12-28T08:46:58;102277.3;;;12.3;87.0
72124;BME280;63818;37.134;-8.548;2023-12-28T08:51:48;102281.1;;;12.4;87.5
72124;BME280;63818;37.134;-8.548;2023-12-28T08:56:38;102276.2;;;12.4;87.9
72124;BME280;63818;37.134;-8.548;2023-12-28T09:01:33;102265.2;;;12.3;87.9
72124;BME280;63818;37.134;-8.548;2023-12-28T09:06:22;102271.1;;;12.3;88.2
72124;BME280;63818;37.134;-8.548;2023-12-28T09:11:11;102266.0;;;12.3;88.2
72124;BME280;63818;37.134;-8.548;2023-12-28T09:16:01;102267.3;;;12.3;88.5
72124;BME280;63818;37.134;-8.548;2023-12-28T09:20:50;102276.2;;;12.4;88.4
72124;BME280;63818;37.134;-8.548;2023-12-28T09:26:07;102268.9;;;12.4;88.1
72124;BME280;63818;37.134;-8.548;2023-12-28T09:30:55;102277.2;;;12.5;88.4
72124;BME280;63818;37.134;-8.548;2023-12-28T09:35:43;102278.0;;;12.5;87.8
72124;BME280;63818;37.134;-8.548;2023-12-28T09:40:32;102276.1;;;12.5;87.9
72124;BME280;63818;37.134;-8.548;2023-12-28T09:45:20;102293.9;;;12.5;87.7
72124;BME280;63818;37.134;-8.548;2023-12-28T09:50:15;102309.3;;;12.5;87.7
72124;BME280;63818;37.134;-8.548;2023-12-28T09:55:05;102307.4;;;12.5;87.7
72124;BME280;63818;37.134;-8.548;2023-12-28T09:59:54;102313.3;;;12.5;87.5
72124;BME280;63818;37.134;-8.548;2023-12-28T10:04:42;102289.8;;;12.6;87.7
72124;BME280;63818;37.134;-8.548;2023-12-28T10:09:30;102291.7;;;12.6;87.3
72124;BME280;63818;37.134;-8.548;2023-12-28T10:14:21;102304.6;;;12.6;86.8
72124;BME280;63818;37.134;-8.548;2023-12-28T10:19:09;102308.3;;;12.7;87.0
72124;BME280;63818;37.134;-8.548;2023-12-28T10:28:59;102301.5;;;12.8;86.8
72124;BME280;63818;37.134;-8.548;2023-12-28T10:33:47;102296.4;;;12.8;86.2
72124;BME280;63818;37.134;-8.548;2023-12-28T10:38:38;102286.6;;;12.8;86.5
72124;BME280;63818;37.134;-8.548;2023-12-28T10:43:29;102286.3;;;12.9;86.3
72124;BME280;63818;37.134;-8.548;2023-12-28T10:48:24;102295.4;;;12.9;85.8
72124;BME280;63818;37.134;-8.548;2023-12-28T10:53:26;102304.6;;;12.9;85.9
72124;BME280;63818;37.134;-8.548;2023-12-28T10:58:27;102315.4;;;12.9;86.0
72124;BME280;63818;37.134;-8.548;2023-12-28T11:03:23;102297.3;;;12.9;86.1
72124;BME280;63818;37.134;-8.548;2023-12-28T11:08:15;102310.2;;;12.9;86.0
72124;BME280;63818;37.134;-8.548;2023-12-28T11:13:05;102305.4;;;13.0;86.2
72124;BME280;63818;37.134;-8.548;2023-12-28T11:17:53;102302.1;;;13.0;86.3
72124;BME280;63818;37.134;-8.548;2023-12-28T11:22:41;102301.5;;;13.0;86.6
72124;BME280;63818;37.134;-8.548;2023-12-28T11:32:23;102286.3;;;13.1;86.8
72124;BME280;63818;37.134;-8.548;2023-12-28T11:37:13;102284.6;;;13.3;86.0
72124;BME280;63818;37.134;-8.548;2023-12-28T11:42:06;102269.9;;;13.3;86.2
72124;BME280;63818;37.134;-8.548;2023-12-28T11:47:21;102272.2;;;13.4;86.0
72124;BME280;63818;37.134;-8.548;2023-12-28T11:52:10;102266.2;;;13.5;85.3
72124;BME280;63818;37.134;-8.548;2023-12-28T11:57:00;102249.6;;;13.6;84.1
72124;BME280;63818;37.134;-8.548;2023-12-28T12:01:52;102230.5;;;13.7;83.9
72124;BME280;63818;37.134;-8.548;2023-12-28T12:06:41;102210.2;;;13.8;83.7
72124;BME280;63818;37.134;-8.548;2023-12-28T12:11:28;102203.1;;;13.9;83.0
72124;BME280;63818;37.134;-8.548;2023-12-28T12:16:18;102206.2;;;13.9;82.5
72124;BME280;63818;37.134;-8.548;2023-12-28T12:21:08;102204.0;;;13.9;82.1
72124;BME280;63818;37.134;-8.548;2023-12-28T12:25:56;102203.9;;;14.0;81.3
72124;BME280;63818;37.134;-8.548;2023-12-28T12:30:53;102193.9;;;14.1;81.1
72124;BME280;63818;37.134;-8.548;2023-12-28T12:35:42;102168.6;;;14.1;80.9
72124;BME280;63818;37.134;-8.548;2023-12-28T12:40:33;102160.0;;;14.3;80.7
72124;BME280;63818;37.134;-8.548;2023-12-28T12:45:25;102161.3;;;14.3;80.8
72124;BME280;63818;37.134;-8.548;2023-12-28T12:50:13;102155.8;;;14.4;81.3
72124;BME280;63818;37.134;-8.548;2023-12-28T12:55:01;102154.3;;;14.5;81.7
72124;BME280;63818;37.134;-8.548;2023-12-28T12:59:51;102160.2;;;14.5;81.9
72124;BME280;63818;37.134;-8.548;2023-12-28T13:09:34;102169.6;;;14.5;80.6
72124;BME280;63818;37.134;-8.548;2023-12-28T13:14:22;102140.9;;;14.6;79.9
72124;BME280;63818;37.134;-8.548;2023-12-28T13:19:10;102125.1;;;14.6;78.9
72124;BME280;63818;37.134;-8.548;2023-12-28T13:23:58;102127.8;;;14.6;76.8
72124;BME280;63818;37.134;-8.548;2023-12-28T13:28:46;102112.9;;;14.6;76.3
72124;BME280;63818;37.134;-8.548;2023-12-28T13:33:35;102085.5;;;14.7;74.8
72124;BME280;63818;37.134;-8.548;2023-12-28T13:38:27;102083.0;;;14.7;74.5
72124;BME280;63818;37.134;-8.548;2023-12-28T13:43:17;102088.4;;;14.7;74.7
72124;BME280;63818;37.134;-8.548;2023-12-28T13:48:13;102073.2;;;14.7;73.9
72124;BME280;63818;37.134;-8.548;2023-12-28T13:53:01;102075.2;;;14.7;74.4
72124;BME280;63818;37.134;-8.548;2023-12-28T13:57:49;102074.2;;;14.7;73.9
72124;BME280;63818;37.134;-8.548;2023-12-28T14:02:42;102070.8;;;14.8;72.9
72124;BME280;63818;37.134;-8.548;2023-12-28T14:07:30;102057.4;;;14.9;71.7
72124;BME280;63818;37.134;-8.548;2023-12-28T14:12:19;102055.4;;;15.0;70.9
72124;BME280;63818;37.134;-8.548;2023-12-28T14:17:10;102063.2;;;15.0;70.9
72124;BME280;63818;37.134;-8.548;2023-12-28T14:21:58;102055.9;;;15.0;70.0
72124;BME280;63818;37.134;-8.548;2023-12-28T14:26:47;102046.5;;;14.9;70.0
72124;BME280;63818;37.134;-8.548;2023-12-28T14:31:37;102047.5;;;15.0;69.3
72124;BME280;63818;37.134;-8.548;2023-12-28T14:36:29;102041.1;;;14.9;69.1
72124;BME280;63818;37.134;-8.548;2023-12-28T14:41:18;102032.2;;;14.9;69.6
72124;BME280;63818;37.134;-8.548;2023-12-28T14:46:08;102016.9;;;14.9;69.4
72124;BME280;63818;37.134;-8.548;2023-12-28T14:50:58;102036.0;;;14.8;70.0
72124;BME280;63818;37.134;-8.548;2023-12-28T14:55:46;102040.4;;;14.8;70.2
72124;BME280;63818;37.134;-8.548;2023-12-28T15:00:36;102034.5;;;14.7;70.1
72124;BME280;63818;37.134;-8.548;2023-12-28T15:05:24;102035.6;;;14.7;70.3
72124;BME280;63818;37.134;-8.548;2023-12-28T15:10:12;102033.7;;;14.7;70.9
72124;BME280;63818;37.134;-8.548;2023-12-28T15:15:01;102039.9;;;14.7;71.0
72124;BME280;63818;37.134;-8.548;2023-12-28T15:19:57;102028.0;;;14.8;70.8
72124;BME280;63818;37.134;-8.548;2023-12-28T15:24:46;102035.2;;;14.8;71.0
72124;BME280;63818;37.134;-8.548;2023-12-28T15:29:34;102033.2;;;15.2;70.2
72124;BME280;63818;37.134;-8.548;2023-12-28T15:34:22;102032.2;;;15.3;69.6
72124;BME280;63818;37.134;-8.548;2023-12-28T15:44:04;102035.0;;;15.1;70.5
72124;BME280;63818;37.134;-8.548;2023-12-28T15:48:52;102037.6;;;15.0;71.4
72124;BME280;63818;37.134;-8.548;2023-12-28T15:53:40;102026.2;;;14.9;72.0
72124;BME280;63818;37.134;-8.548;2023-12-28T15:58:28;102032.7;;;14.8;72.5
72124;BME280;63818;37.134;-8.548;2023-12-28T16:03:15;102046.9;;;14.8;72.6
72124;BME280;63818;37.134;-8.548;2023-12-28T16:08:04;102056.7;;;14.7;73.4
72124;BME280;63818;37.134;-8.548;2023-12-28T16:12:56;102048.7;;;14.7;73.8
72124;BME280;63818;37.134;-8.548;2023-12-28T16:17:44;102053.9;;;14.6;74.7
72124;BME280;63818;37.134;-8.548;2023-12-28T16:22:33;102048.3;;;14.6;75.5
72124;BME280;63818;37.134;-8.548;2023-12-28T16:27:21;102049.9;;;14.6;76.4
72124;BME280;63818;37.134;-8.548;2023-12-28T16:32:09;102052.6;;;14.6;76.7
72124;BME280;63818;37.134;-8.548;2023-12-28T16:36:57;102061.8;;;14.6;77.4
72124;BME280;63818;37.134;-8.548;2023-12-28T16:41:48;102071.9;;;14.6;77.8
72124;BME280;63818;37.134;-8.548;2023-12-28T16:46:43;102082.5;;;14.6;78.5
72124;BME280;63818;37.134;-8.548;2023-12-28T16:51:35;102054.9;;;14.5;79.1
72124;BME280;63818;37.134;-8.548;2023-12-28T16:56:25;102096.6;;;14.5;79.9
72124;BME280;63818;37.134;-8.548;2023-12-28T17:01:15;102089.3;;;14.5;80.1
72124;BME280;63818;37.134;-8.548;2023-12-28T17:06:03;102085.3;;;14.5;80.4
72124;BME280;63818;37.134;-8.548;2023-12-28T17:10:51;102080.8;;;14.4;80.8
72124;BME280;63818;37.134;-8.548;2023-12-28T17:15:45;102059.1;;;14.4;81.2
72124;BME280;63818;37.134;-8.548;2023-12-28T17:20:34;102054.5;;;14.5;81.9
72124;BME280;63818;37.134;-8.548;2023-12-28T17:25:29;102075.3;;;14.4;81.9
72124;BME280;63818;37.134;-8.548;2023-12-28T17:30:21;102053.2;;;14.4;82.4
72124;BME280;63818;37.134;-8.548;2023-12-28T17:35:11;102043.8;;;14.4;82.5
72124;BME280;63818;37.134;-8.548;2023-12-28T17:40:02;102045.7;;;14.4;82.8
72124;BME280;63818;37.134;-8.548;2023-12-28T17:44:54;102035.5;;;14.4;83.2
72124;BME280;63818;37.134;-8.548;2023-12-28T17:49:45;102045.2;;;14.4;83.5
72124;BME280;63818;37.134;-8.548;2023-12-28T17:54:39;102054.7;;;14.4;83.8
72124;BME280;63818;37.134;-8.548;2023-12-28T17:59:27;102072.8;;;14.4;83.9
72124;BME280;63818;37.134;-8.548;2023-12-28T18:04:19;102100.1;;;14.3;84.4
72124;BME280;63818;37.134;-8.548;2023-12-28T18:09:07;102105.0;;;14.3;84.3
72124;BME280;63818;37.134;-8.548;2023-12-28T18:13:56;102115.0;;;14.3;84.3
72124;BME280;63818;37.134;-8.548;2023-12-28T18:18:44;102086.4;;;14.3;84.6
72124;BME280;63818;37.134;-8.548;2023-12-28T18:23:34;102070.5;;;14.3;84.5
72124;BME280;63818;37.134;-8.548;2023-12-28T18:28:22;102078.6;;;14.3;85.2
72124;BME280;63818;37.134;-8.548;2023-12-28T18:33:10;102104.0;;;14.3;85.1
72124;BME280;63818;37.134;-8.548;2023-12-28T18:38:02;102101.3;;;14.3;85.5
72124;BME280;63818;37.134;-8.548;2023-12-28T18:42:50;102127.6;;;14.3;85.4
72124;BME280;63818;37.134;-8.548;2023-12-28T18:47:40;102112.4;;;14.3;85.8
72124;BME280;63818;37.134;-8.548;2023-12-28T18:52:30;102118.9;;;14.2;85.6
72124;BME280;63818;37.134;-8.548;2023-12-28T18:57:18;102140.1;;;14.2;85.9
72124;BME280;63818;37.134;-8.548;2023-12-28T19:07:01;102135.5;;;14.2;85.9
72124;BME280;63818;37.134;-8.548;2023-12-28T19:11:49;102148.2;;;14.2;86.2
72124;BME280;63818;37.134;-8.548;2023-12-28T19:16:36;102152.0;;;14.2;86.2
72124;BME280;63818;37.134;-8.548;2023-12-28T19:21:28;102140.7;;;14.2;86.5
72124;BME280;63818;37.134;-8.548;2023-12-28T19:26:16;102151.5;;;14.2;86.2
72124;BME280;63818;37.134;-8.548;2023-12-28T19:31:04;102144.5;;;14.2;86.3
72124;BME280;63818;37.134;-8.548;2023-12-28T19:35:59;102141.8;;;14.2;86.4
72124;BME280;63818;37.134;-8.548;2023-12-28T19:40:47;102163.4;;;14.2;86.9
72124;BME280;63818;37.134;-8.548;2023-12-28T19:45:35;102162.6;;;14.2;87.0
72124;BME280;63818;37.134;-8.548;2023-12-28T19:50:23;102153.7;;;14.2;86.9
72124;BME280;63818;37.134;-8.548;2023-12-28T19:55:12;102155.9;;;14.2;87.0
72124;BME280;63818;37.134;-8.548;2023-12-28T20:00:00;102158.6;;;14.2;86.9
72124;BME280;63818;37.134;-8.548;2023-12-28T20:04:48;102159.1;;;14.1;86.8
72124;BME280;63818;37.134;-8.548;2023-12-28T20:09:36;102156.0;;;14.1;87.1
72124;BME280;63818;37.134;-8.548;2023-12-28T20:14:24;102153.3;;;14.1;87.5
72124;BME280;63818;37.134;-8.548;2023-12-28T20:19:12;102169.0;;;14.1;87.4
72124;BME280;63818;37.134;-8.548;2023-12-28T20:24:00;102176.5;;;14.1;87.1
72124;BME280;63818;37.134;-8.548;2023-12-28T20:28:47;102179.8;;;14.0;87.0
72124;BME280;63818;37.134;-8.548;2023-12-28T20:33:36;102172.8;;;14.0;86.6
72124;BME280;63818;37.134;-8.548;2023-12-28T20:38:29;102197.2;;;14.0;86.7
72124;BME280;63818;37.134;-8.548;2023-12-28T20:43:17;102211.8;;;14.0;86.5
72124;BME280;63818;37.134;-8.548;2023-12-28T20:48:10;102203.7;;;14.0;86.2
72124;BME280;63818;37.134;-8.548;2023-12-28T20:52:58;102198.5;;;14.0;86.3
72124;BME280;63818;37.134;-8.548;2023-12-28T20:57:47;102229.1;;;14.0;86.1
72124;BME280;63818;37.134;-8.548;2023-12-28T21:02:37;102232.6;;;14.0;85.7
72124;BME280;63818;37.134;-8.548;2023-12-28T21:07:25;102219.7;;;14.0;85.6
72124;BME280;63818;37.134;-8.548;2023-12-28T21:12:13;102195.3;;;14.0;85.5
72124;BME280;63818;37.134;-8.548;2023-12-28T21:17:01;102199.7;;;14.0;85.5
72124;BME280;63818;37.134;-8.548;2023-12-28T21:21:52;102195.3;;;14.0;85.4
72124;BME280;63818;37.134;-8.548;2023-12-28T21:26:41;102196.1;;;14.0;85.7
72124;BME280;63818;37.134;-8.548;2023-12-28T21:31:31;102201.0;;;14.0;85.7
72124;BME280;63818;37.134;-8.548;2023-12-28T21:36:18;102207.2;;;14.0;85.7
72124;BME280;63818;37.134;-8.548;2023-12-28T21:41:08;102217.2;;;14.0;85.6
72124;BME280;63818;37.134;-8.548;2023-12-28T21:45:59;102210.2;;;14.0;85.9
72124;BME280;63818;37.134;-8.548;2023-12-28T21:50:46;102210.2;;;14.0;86.0
72124;BME280;63818;37.134;-8.548;2023-12-28T21:55:34;102205.9;;;13.9;86.2
72124;BME280;63818;37.134;-8.548;2023-12-28T22:00:24;102204.6;;;13.9;86.2
72124;BME280;63818;37.134;-8.548;2023-12-28T22:05:12;102217.0;;;13.9;86.3
72124;BME280;63818;37.134;-8.548;2023-12-28T22:10:00;102201.1;;;13.9;86.5
72124;BME280;63818;37.134;-8.548;2023-12-28T22:14:48;102200.6;;;13.9;86.6
72124;BME280;63818;37.134;-8.548;2023-12-28T22:19:37;102223.3;;;13.9;86.3
72124;BME280;63818;37.134;-8.548;2023-12-28T22:24:27;102228.7;;;13.9;86.8
72124;BME280;63818;37.134;-8.548;2023-12-28T22:29:19;102206.6;;;13.9;86.7
72124;BME280;63818;37.134;-8.548;2023-12-28T22:34:07;102209.6;;;13.9;86.9
72124;BME280;63818;37.134;-8.548;2023-12-28T22:39:01;102195.5;;;13.8;87.2
72124;BME280;63818;37.134;-8.548;2023-12-28T22:43:51;102213.4;;;13.8;87.2
72124;BME280;63818;37.134;-8.548;2023-12-28T22:48:41;102211.0;;;13.8;87.4
72124;BME280;63818;37.134;-8.548;2023-12-28T22:53:29;102209.4;;;13.8;87.5
72124;BME280;63818;37.134;-8.548;2023-12-28T22:58:17;102202.6;;;13.8;87.3
72124;BME280;63818;37.134;-8.548;2023-12-28T23:03:07;102198.6;;;13.8;87.4
72124;BME280;63818;37.134;-8.548;2023-12-28T23:07:58;102195.6;;;13.8;87.3
72124;BME280;63818;37.134;-8.548;2023-12-28T23:12:49;102195.1;;;13.8;87.4
72124;BME280;63818;37.134;-8.548;2023-12-28T23:17:37;102208.9;;;13.7;87.7
72124;BME280;63818;37.134;-8.548;2023-12-28T23:22:27;102194.3;;;13.8;87.7
72124;BME280;63818;37.134;-8.548;2023-12-28T23:27:17;102187.3;;;13.7;87.4
72124;BME280;63818;37.134;-8.548;2023-12-28T23:32:05;102182.2;;;13.7;87.3
72124;BME280;63818;37.134;-8.548;2023-12-28T23:36:54;102179.0;;;13.7;87.5
72124;BME280;63818;37.134;-8.548;2023-12-28T23:41:44;102180.1;;;13.7;87.7
72124;BME280;63818;37.134;-8.548;2023-12-28T23:51:31;102155.5;;;13.7;88.0
72124;BME280;63818;37.134;-8.548;2023-12-28T23:56:24;102153.9;;;13.7;87.8
